METAR Data
IDs: Format: Raw Decoded Include TAF

Data at: 0618 UTC 28 Sep 2022

KBEA 280615Z AUTO 00000KT 10SM CLR 16/12 A3013 RMK AO2 T01560119